sensor_id;sensor_type;location;lat;lon;timestamp;temperature;humidity
71039;SHT30;58692;43.212;27.908;2024-01-16T00:01:41;6.70;80.38
71039;SHT30;58692;43.212;27.908;2024-01-16T00:04:07;6.71;80.95
71039;SHT30;58692;43.212;27.908;2024-01-16T00:06:33;6.77;80.67
71039;SHT30;58692;43.212;27.908;2024-01-16T00:08:59;6.71;81.46
71039;SHT30;58692;43.212;27.908;2024-01-16T00:11:24;6.74;81.55
71039;SHT30;58692;43.212;27.908;2024-01-16T00:13:50;6.61;81.39
71039;SHT30;58692;43.212;27.908;2024-01-16T00:16:15;6.74;81.38
71039;SHT30;58692;43.212;27.908;2024-01-16T00:18:41;6.78;81.32
71039;SHT30;58692;43.212;27.908;2024-01-16T00:21:06;6.85;81.75
71039;SHT30;58692;43.212;27.908;2024-01-16T00:23:32;6.99;82.19
71039;SHT30;58692;43.212;27.908;2024-01-16T00:25:58;6.95;82.10
71039;SHT30;58692;43.212;27.908;2024-01-16T00:28:23;6.95;81.89
71039;SHT30;58692;43.212;27.908;2024-01-16T00:30:49;6.95;82.31
71039;SHT30;58692;43.212;27.908;2024-01-16T00:33:14;6.92;81.84
71039;SHT30;58692;43.212;27.908;2024-01-16T00:35:40;6.97;82.23
71039;SHT30;58692;43.212;27.908;2024-01-16T00:38:06;6.98;82.08
71039;SHT30;58692;43.212;27.908;2024-01-16T00:40:32;6.99;82.55
71039;SHT30;58692;43.212;27.908;2024-01-16T00:42:57;7.14;83.14
71039;SHT30;58692;43.212;27.908;2024-01-16T00:45:23;7.14;82.76
71039;SHT30;58692;43.212;27.908;2024-01-16T00:47:49;7.14;82.78
71039;SHT30;58692;43.212;27.908;2024-01-16T00:50:14;7.21;83.12
71039;SHT30;58692;43.212;27.908;2024-01-16T00:52:40;7.19;82.63
71039;SHT30;58692;43.212;27.908;2024-01-16T00:55:06;7.15;82.72
71039;SHT30;58692;43.212;27.908;2024-01-16T00:57:32;7.15;82.61
71039;SHT30;58692;43.212;27.908;2024-01-16T00:59:58;7.22;82.92
71039;SHT30;58692;43.212;27.908;2024-01-16T01:02:23;7.25;83.20
71039;SHT30;58692;43.212;27.908;2024-01-16T01:04:49;7.23;83.32
71039;SHT30;58692;43.212;27.908;2024-01-16T01:07:15;7.30;83.60
71039;SHT30;58692;43.212;27.908;2024-01-16T01:09:40;7.30;83.21
71039;SHT30;58692;43.212;27.908;2024-01-16T01:12:06;7.35;83.81
71039;SHT30;58692;43.212;27.908;2024-01-16T01:14:33;7.38;83.33
71039;SHT30;58692;43.212;27.908;2024-01-16T01:16:59;7.33;82.78
71039;SHT30;58692;43.212;27.908;2024-01-16T01:19:24;7.29;82.83
71039;SHT30;58692;43.212;27.908;2024-01-16T01:21:50;7.32;83.30
71039;SHT30;58692;43.212;27.908;2024-01-16T01:24:16;7.29;83.47
71039;SHT30;58692;43.212;27.908;2024-01-16T01:26:43;7.32;83.32
71039;SHT30;58692;43.212;27.908;2024-01-16T01:29:09;7.26;83.25
71039;SHT30;58692;43.212;27.908;2024-01-16T01:31:35;7.26;82.96
71039;SHT30;58692;43.212;27.908;2024-01-16T01:34:01;7.19;82.93
71039;SHT30;58692;43.212;27.908;2024-01-16T01:36:27;7.15;83.12
71039;SHT30;58692;43.212;27.908;2024-01-16T01:38:52;7.12;83.17
71039;SHT30;58692;43.212;27.908;2024-01-16T01:41:18;7.14;83.09
71039;SHT30;58692;43.212;27.908;2024-01-16T01:43:44;7.04;83.29
71039;SHT30;58692;43.212;27.908;2024-01-16T01:46:16;7.04;83.16
71039;SHT30;58692;43.212;27.908;2024-01-16T01:48:42;7.01;84.03
71039;SHT30;58692;43.212;27.908;2024-01-16T01:51:09;7.04;84.07
71039;SHT30;58692;43.212;27.908;2024-01-16T01:53:36;6.99;84.29
71039;SHT30;58692;43.212;27.908;2024-01-16T01:56:04;7.05;84.14
71039;SHT30;58692;43.212;27.908;2024-01-16T01:58:33;7.02;84.26
71039;SHT30;58692;43.212;27.908;2024-01-16T02:01:00;7.01;84.19
71039;SHT30;58692;43.212;27.908;2024-01-16T02:03:27;7.02;84.10
71039;SHT30;58692;43.212;27.908;2024-01-16T02:05:55;7.05;84.04
71039;SHT30;58692;43.212;27.908;2024-01-16T02:08:21;7.01;84.03
71039;SHT30;58692;43.212;27.908;2024-01-16T02:10:49;6.99;83.87
71039;SHT30;58692;43.212;27.908;2024-01-16T02:13:15;6.97;83.94
71039;SHT30;58692;43.212;27.908;2024-01-16T02:15:40;6.97;83.89
71039;SHT30;58692;43.212;27.908;2024-01-16T02:18:07;6.99;83.83
71039;SHT30;58692;43.212;27.908;2024-01-16T02:20:33;6.98;83.87
71039;SHT30;58692;43.212;27.908;2024-01-16T02:23:03;6.92;83.98
71039;SHT30;58692;43.212;27.908;2024-01-16T02:25:29;6.91;84.05
71039;SHT30;58692;43.212;27.908;2024-01-16T02:27:55;6.84;84.09
71039;SHT30;58692;43.212;27.908;2024-01-16T02:30:21;6.81;84.81
71039;SHT30;58692;43.212;27.908;2024-01-16T02:32:46;6.80;85.09
71039;SHT30;58692;43.212;27.908;2024-01-16T02:35:12;6.80;84.98
71039;SHT30;58692;43.212;27.908;2024-01-16T02:37:38;6.81;84.93
71039;SHT30;58692;43.212;27.908;2024-01-16T02:40:04;6.85;84.91
71039;SHT30;58692;43.212;27.908;2024-01-16T02:42:33;6.89;84.86
71039;SHT30;58692;43.212;27.908;2024-01-16T02:44:58;6.89;84.64
71039;SHT30;58692;43.212;27.908;2024-01-16T02:47:24;6.84;84.43
71039;SHT30;58692;43.212;27.908;2024-01-16T02:49:50;6.88;84.87
71039;SHT30;58692;43.212;27.908;2024-01-16T02:52:15;6.85;84.97
71039;SHT30;58692;43.212;27.908;2024-01-16T02:54:41;6.87;84.78
71039;SHT30;58692;43.212;27.908;2024-01-16T02:57:07;6.88;84.72
71039;SHT30;58692;43.212;27.908;2024-01-16T02:59:32;6.88;84.71
71039;SHT30;58692;43.212;27.908;2024-01-16T03:01:59;6.83;84.65
71039;SHT30;58692;43.212;27.908;2024-01-16T03:04:24;6.85;84.40
71039;SHT30;58692;43.212;27.908;2024-01-16T03:06:51;6.85;84.32
71039;SHT30;58692;43.212;27.908;2024-01-16T03:09:17;6.88;84.19
71039;SHT30;58692;43.212;27.908;2024-01-16T03:11:43;6.85;84.07
71039;SHT30;58692;43.212;27.908;2024-01-16T03:14:09;6.83;84.17
71039;SHT30;58692;43.212;27.908;2024-01-16T03:16:35;6.81;84.21
71039;SHT30;58692;43.212;27.908;2024-01-16T03:19:00;6.81;84.24
71039;SHT30;58692;43.212;27.908;2024-01-16T03:21:26;6.81;84.18
71039;SHT30;58692;43.212;27.908;2024-01-16T03:23:51;6.80;84.10
71039;SHT30;58692;43.212;27.908;2024-01-16T03:26:17;6.78;84.06
71039;SHT30;58692;43.212;27.908;2024-01-16T03:28:43;6.76;84.03
71039;SHT30;58692;43.212;27.908;2024-01-16T03:31:09;6.73;84.19
71039;SHT30;58692;43.212;27.908;2024-01-16T03:33:35;6.70;84.16
71039;SHT30;58692;43.212;27.908;2024-01-16T03:36:01;6.70;84.23
71039;SHT30;58692;43.212;27.908;2024-01-16T03:38:26;6.61;84.69
71039;SHT30;58692;43.212;27.908;2024-01-16T03:40:52;6.60;84.69
71039;SHT30;58692;43.212;27.908;2024-01-16T03:43:18;6.63;84.58
71039;SHT30;58692;43.212;27.908;2024-01-16T03:45:44;6.67;84.54
71039;SHT30;58692;43.212;27.908;2024-01-16T03:48:09;6.63;84.63
71039;SHT30;58692;43.212;27.908;2024-01-16T03:50:35;6.58;84.82
71039;SHT30;58692;43.212;27.908;2024-01-16T03:53:02;6.51;85.24
71039;SHT30;58692;43.212;27.908;2024-01-16T03:55:29;6.47;85.35
71039;SHT30;58692;43.212;27.908;2024-01-16T03:57:56;6.53;85.12
71039;SHT30;58692;43.212;27.908;2024-01-16T04:00:21;6.53;85.16
71039;SHT30;58692;43.212;27.908;2024-01-16T04:02:47;6.43;85.78
71039;SHT30;58692;43.212;27.908;2024-01-16T04:05:13;6.47;85.51
71039;SHT30;58692;43.212;27.908;2024-01-16T04:07:38;6.46;85.53
71039;SHT30;58692;43.212;27.908;2024-01-16T04:10:06;6.47;85.49
71039;SHT30;58692;43.212;27.908;2024-01-16T04:12:32;6.48;85.59
71039;SHT30;58692;43.212;27.908;2024-01-16T04:14:57;6.48;85.49
71039;SHT30;58692;43.212;27.908;2024-01-16T04:17:23;6.48;85.53
71039;SHT30;58692;43.212;27.908;2024-01-16T04:19:49;6.41;85.59
71039;SHT30;58692;43.212;27.908;2024-01-16T04:22:14;6.34;86.03
71039;SHT30;58692;43.212;27.908;2024-01-16T04:24:40;6.34;86.21
71039;SHT30;58692;43.212;27.908;2024-01-16T04:27:05;6.37;86.21
71039;SHT30;58692;43.212;27.908;2024-01-16T04:29:31;6.43;85.98
71039;SHT30;58692;43.212;27.908;2024-01-16T04:31:57;6.44;85.86
71039;SHT30;58692;43.212;27.908;2024-01-16T04:34:23;6.44;85.82
71039;SHT30;58692;43.212;27.908;2024-01-16T04:36:48;6.46;85.86
71039;SHT30;58692;43.212;27.908;2024-01-16T04:39:14;6.46;85.77
71039;SHT30;58692;43.212;27.908;2024-01-16T04:41:39;6.46;85.81
71039;SHT30;58692;43.212;27.908;2024-01-16T04:44:05;6.44;85.80
71039;SHT30;58692;43.212;27.908;2024-01-16T04:46:31;6.41;85.84
71039;SHT30;58692;43.212;27.908;2024-01-16T04:48:56;6.44;85.76
71039;SHT30;58692;43.212;27.908;2024-01-16T04:51:22;6.46;85.75
71039;SHT30;58692;43.212;27.908;2024-01-16T04:53:47;6.46;85.75
71039;SHT30;58692;43.212;27.908;2024-01-16T04:56:13;6.46;85.72
71039;SHT30;58692;43.212;27.908;2024-01-16T04:58:39;6.37;86.28
71039;SHT30;58692;43.212;27.908;2024-01-16T05:01:04;6.33;86.38
71039;SHT30;58692;43.212;27.908;2024-01-16T05:03:30;6.41;86.16
71039;SHT30;58692;43.212;27.908;2024-01-16T05:05:55;6.38;85.95
71039;SHT30;58692;43.212;27.908;2024-01-16T05:08:22;6.32;85.94
71039;SHT30;58692;43.212;27.908;2024-01-16T05:10:48;6.19;86.17
71039;SHT30;58692;43.212;27.908;2024-01-16T05:13:14;6.07;86.84
71039;SHT30;58692;43.212;27.908;2024-01-16T05:15:40;5.93;87.57
71039;SHT30;58692;43.212;27.908;2024-01-16T05:18:07;5.99;87.13
71039;SHT30;58692;43.212;27.908;2024-01-16T05:20:33;6.05;87.00
71039;SHT30;58692;43.212;27.908;2024-01-16T05:22:58;6.03;86.92
71039;SHT30;58692;43.212;27.908;2024-01-16T05:25:24;6.01;86.91
71039;SHT30;58692;43.212;27.908;2024-01-16T05:27:50;6.02;87.01
71039;SHT30;58692;43.212;27.908;2024-01-16T05:30:16;5.92;87.55
71039;SHT30;58692;43.212;27.908;2024-01-16T05:32:42;6.01;87.43
71039;SHT30;58692;43.212;27.908;2024-01-16T05:35:08;6.09;87.46
71039;SHT30;58692;43.212;27.908;2024-01-16T05:37:35;6.12;87.61
71039;SHT30;58692;43.212;27.908;2024-01-16T05:40:01;6.13;87.71
71039;SHT30;58692;43.212;27.908;2024-01-16T05:42:29;6.12;87.88
71039;SHT30;58692;43.212;27.908;2024-01-16T05:44:55;6.19;87.62
71039;SHT30;58692;43.212;27.908;2024-01-16T05:47:20;6.20;87.51
71039;SHT30;58692;43.212;27.908;2024-01-16T05:49:46;6.26;87.39
71039;SHT30;58692;43.212;27.908;2024-01-16T05:52:12;6.27;87.22
71039;SHT30;58692;43.212;27.908;2024-01-16T05:54:38;6.26;87.16
71039;SHT30;58692;43.212;27.908;2024-01-16T05:57:04;6.27;86.76
71039;SHT30;58692;43.212;27.908;2024-01-16T05:59:30;6.32;86.37
71039;SHT30;58692;43.212;27.908;2024-01-16T06:01:55;6.46;85.38
71039;SHT30;58692;43.212;27.908;2024-01-16T06:04:21;6.68;83.87
71039;SHT30;58692;43.212;27.908;2024-01-16T06:06:46;6.95;82.51
71039;SHT30;58692;43.212;27.908;2024-01-16T06:09:13;7.07;81.85
71039;SHT30;58692;43.212;27.908;2024-01-16T06:11:40;7.19;81.19
71039;SHT30;58692;43.212;27.908;2024-01-16T06:14:07;7.28;80.79
71039;SHT30;58692;43.212;27.908;2024-01-16T06:16:33;7.36;80.41
71039;SHT30;58692;43.212;27.908;2024-01-16T06:22:32;7.45;79.93
71039;SHT30;58692;43.212;27.908;2024-01-16T06:24:57;7.53;79.80
71039;SHT30;58692;43.212;27.908;2024-01-16T06:27:23;7.53;79.52
71039;SHT30;58692;43.212;27.908;2024-01-16T06:29:49;7.67;79.38
71039;SHT30;58692;43.212;27.908;2024-01-16T06:32:16;7.67;79.39
71039;SHT30;58692;43.212;27.908;2024-01-16T06:34:43;7.66;79.31
71039;SHT30;58692;43.212;27.908;2024-01-16T06:37:09;7.60;79.42
71039;SHT30;58692;43.212;27.908;2024-01-16T06:39:36;7.70;78.78
71039;SHT30;58692;43.212;27.908;2024-01-16T06:42:03;7.72;78.76
71039;SHT30;58692;43.212;27.908;2024-01-16T06:44:33;7.77;78.65
71039;SHT30;58692;43.212;27.908;2024-01-16T06:47:13;7.82;78.39
71039;SHT30;58692;43.212;27.908;2024-01-16T06:49:38;7.77;78.45
71039;SHT30;58692;43.212;27.908;2024-01-16T06:52:08;7.74;78.37
71039;SHT30;58692;43.212;27.908;2024-01-16T06:54:34;7.77;78.30
71039;SHT30;58692;43.212;27.908;2024-01-16T06:57:02;7.84;77.99
71039;SHT30;58692;43.212;27.908;2024-01-16T06:59:28;7.84;77.95
71039;SHT30;58692;43.212;27.908;2024-01-16T07:02:05;7.86;77.69
71039;SHT30;58692;43.212;27.908;2024-01-16T07:05:06;7.90;77.40
71039;SHT30;58692;43.212;27.908;2024-01-16T07:08:12;7.93;77.26
71039;SHT30;58692;43.212;27.908;2024-01-16T07:20:10;7.97;77.20
71039;SHT30;58692;43.212;27.908;2024-01-16T07:23:04;7.94;77.28
71039;SHT30;58692;43.212;27.908;2024-01-16T07:25:36;7.93;77.28
71039;SHT30;58692;43.212;27.908;2024-01-16T07:28:04;7.87;77.22
71039;SHT30;58692;43.212;27.908;2024-01-16T07:30:53;7.86;77.27
71039;SHT30;58692;43.212;27.908;2024-01-16T07:33:19;7.82;77.39
71039;SHT30;58692;43.212;27.908;2024-01-16T07:35:50;7.80;77.57
71039;SHT30;58692;43.212;27.908;2024-01-16T07:38:16;7.82;77.59
71039;SHT30;58692;43.212;27.908;2024-01-16T07:41:00;7.69;77.58
71039;SHT30;58692;43.212;27.908;2024-01-16T07:43:26;7.56;76.98
71039;SHT30;58692;43.212;27.908;2024-01-16T07:45:59;7.43;76.97
71039;SHT30;58692;43.212;27.908;2024-01-16T07:48:25;7.38;77.10
71039;SHT30;58692;43.212;27.908;2024-01-16T07:50:51;7.39;77.26
71039;SHT30;58692;43.212;27.908;2024-01-16T07:53:26;7.38;77.12
71039;SHT30;58692;43.212;27.908;2024-01-16T07:55:56;7.32;77.75
71039;SHT30;58692;43.212;27.908;2024-01-16T07:58:22;7.49;78.38
71039;SHT30;58692;43.212;27.908;2024-01-16T08:01:13;7.39;77.31
71039;SHT30;58692;43.212;27.908;2024-01-16T08:03:38;7.33;77.45
71039;SHT30;58692;43.212;27.908;2024-01-16T08:06:07;7.16;77.76
71039;SHT30;58692;43.212;27.908;2024-01-16T08:14:51;7.05;78.14
71039;SHT30;58692;43.212;27.908;2024-01-16T08:17:17;6.88;78.23
71039;SHT30;58692;43.212;27.908;2024-01-16T08:19:45;6.87;78.38
71039;SHT30;58692;43.212;27.908;2024-01-16T08:22:11;6.73;78.44
71039;SHT30;58692;43.212;27.908;2024-01-16T08:24:36;6.68;78.40
71039;SHT30;58692;43.212;27.908;2024-01-16T08:27:28;6.56;78.73
71039;SHT30;58692;43.212;27.908;2024-01-16T08:30:38;6.44;78.81
71039;SHT30;58692;43.212;27.908;2024-01-16T08:33:22;6.50;78.60
71039;SHT30;58692;43.212;27.908;2024-01-16T08:36:18;6.51;78.25
71039;SHT30;58692;43.212;27.908;2024-01-16T08:39:06;6.43;78.15
71039;SHT30;58692;43.212;27.908;2024-01-16T08:41:36;6.43;77.83
71039;SHT30;58692;43.212;27.908;2024-01-16T08:44:13;6.48;77.51
71039;SHT30;58692;43.212;27.908;2024-01-16T08:46:49;6.54;77.47
71039;SHT30;58692;43.212;27.908;2024-01-16T08:49:29;6.70;77.07
71039;SHT30;58692;43.212;27.908;2024-01-16T08:52:04;6.56;77.09
71039;SHT30;58692;43.212;27.908;2024-01-16T08:54:31;6.66;77.11
71039;SHT30;58692;43.212;27.908;2024-01-16T08:56:57;6.67;76.98
71039;SHT30;58692;43.212;27.908;2024-01-16T08:59:25;6.64;76.91
71039;SHT30;58692;43.212;27.908;2024-01-16T09:04:43;6.61;76.70
71039;SHT30;58692;43.212;27.908;2024-01-16T09:07:14;6.66;76.46
71039;SHT30;58692;43.212;27.908;2024-01-16T09:09:42;6.60;76.57
71039;SHT30;58692;43.212;27.908;2024-01-16T09:12:11;6.57;76.41
71039;SHT30;58692;43.212;27.908;2024-01-16T09:14:37;6.61;76.26
71039;SHT30;58692;43.212;27.908;2024-01-16T09:17:03;6.70;75.89
71039;SHT30;58692;43.212;27.908;2024-01-16T09:19:29;6.71;75.84
71039;SHT30;58692;43.212;27.908;2024-01-16T09:21:58;6.76;75.53
71039;SHT30;58692;43.212;27.908;2024-01-16T09:24:30;6.71;75.27
71039;SHT30;58692;43.212;27.908;2024-01-16T09:26:59;6.83;74.91
71039;SHT30;58692;43.212;27.908;2024-01-16T09:29:53;6.99;74.25
71039;SHT30;58692;43.212;27.908;2024-01-16T09:32:21;7.02;73.25
71039;SHT30;58692;43.212;27.908;2024-01-16T09:35:05;7.73;71.42
71039;SHT30;58692;43.212;27.908;2024-01-16T09:37:43;7.79;70.54
71039;SHT30;58692;43.212;27.908;2024-01-16T09:51:21;7.83;69.53
71039;SHT30;58692;43.212;27.908;2024-01-16T09:53:50;7.82;69.32
71039;SHT30;58692;43.212;27.908;2024-01-16T09:56:40;7.84;69.11
71039;SHT30;58692;43.212;27.908;2024-01-16T09:59:17;7.80;69.00
71039;SHT30;58692;43.212;27.908;2024-01-16T10:01:45;7.87;68.68
71039;SHT30;58692;43.212;27.908;2024-01-16T10:04:15;7.76;68.51
71039;SHT30;58692;43.212;27.908;2024-01-16T10:06:41;7.90;68.23
71039;SHT30;58692;43.212;27.908;2024-01-16T10:09:09;8.24;66.92
71039;SHT30;58692;43.212;27.908;2024-01-16T10:11:37;8.66;66.00
71039;SHT30;58692;43.212;27.908;2024-01-16T10:14:03;9.61;63.19
71039;SHT30;58692;43.212;27.908;2024-01-16T10:16:57;10.62;60.07
71039;SHT30;58692;43.212;27.908;2024-01-16T10:19:54;11.51;57.75
71039;SHT30;58692;43.212;27.908;2024-01-16T10:22:23;12.20;55.87
71039;SHT30;58692;43.212;27.908;2024-01-16T10:25:20;12.98;53.36
71039;SHT30;58692;43.212;27.908;2024-01-16T10:28:05;12.61;53.14
71039;SHT30;58692;43.212;27.908;2024-01-16T10:30:33;12.91;52.56
71039;SHT30;58692;43.212;27.908;2024-01-16T10:33:14;12.97;52.93
71039;SHT30;58692;43.212;27.908;2024-01-16T10:35:40;13.25;52.13
71039;SHT30;58692;43.212;27.908;2024-01-16T10:38:06;13.12;52.25
71039;SHT30;58692;43.212;27.908;2024-01-16T10:40:32;13.00;52.61
71039;SHT30;58692;43.212;27.908;2024-01-16T10:43:00;13.15;51.80
71039;SHT30;58692;43.212;27.908;2024-01-16T10:45:29;13.14;51.42
71039;SHT30;58692;43.212;27.908;2024-01-16T10:48:11;12.90;49.29
71039;SHT30;58692;43.212;27.908;2024-01-16T10:50:38;13.34;48.64
71039;SHT30;58692;43.212;27.908;2024-01-16T10:53:06;13.05;48.41
71039;SHT30;58692;43.212;27.908;2024-01-16T10:55:49;13.12;48.91
71039;SHT30;58692;43.212;27.908;2024-01-16T10:58:22;12.81;49.26
71039;SHT30;58692;43.212;27.908;2024-01-16T11:00:52;13.01;48.98
71039;SHT30;58692;43.212;27.908;2024-01-16T11:03:40;13.01;48.81
71039;SHT30;58692;43.212;27.908;2024-01-16T11:06:19;13.18;49.89
71039;SHT30;58692;43.212;27.908;2024-01-16T11:08:47;13.42;49.76
71039;SHT30;58692;43.212;27.908;2024-01-16T11:11:13;13.41;50.22
71039;SHT30;58692;43.212;27.908;2024-01-16T11:13:40;13.34;49.67
71039;SHT30;58692;43.212;27.908;2024-01-16T11:16:07;13.73;49.11
71039;SHT30;58692;43.212;27.908;2024-01-16T11:18:35;13.99;47.96
71039;SHT30;58692;43.212;27.908;2024-01-16T11:21:04;14.03;47.25
71039;SHT30;58692;43.212;27.908;2024-01-16T11:23:31;13.69;48.33
71039;SHT30;58692;43.212;27.908;2024-01-16T11:25:57;13.75;48.59
71039;SHT30;58692;43.212;27.908;2024-01-16T11:28:27;14.09;46.77
71039;SHT30;58692;43.212;27.908;2024-01-16T11:30:55;14.16;47.71
71039;SHT30;58692;43.212;27.908;2024-01-16T11:36:04;13.01;47.40
71039;SHT30;58692;43.212;27.908;2024-01-16T11:38:29;12.13;47.01
71039;SHT30;58692;43.212;27.908;2024-01-16T11:40:58;11.37;46.53
71039;SHT30;58692;43.212;27.908;2024-01-16T11:43:39;10.99;47.24
71039;SHT30;58692;43.212;27.908;2024-01-16T11:46:09;10.76;48.25
71039;SHT30;58692;43.212;27.908;2024-01-16T11:48:38;10.79;48.77
71039;SHT30;58692;43.212;27.908;2024-01-16T11:51:22;10.74;49.58
71039;SHT30;58692;43.212;27.908;2024-01-16T11:53:48;10.60;50.75
71039;SHT30;58692;43.212;27.908;2024-01-16T11:56:39;10.46;51.75
71039;SHT30;58692;43.212;27.908;2024-01-16T12:04:54;9.90;56.02
71039;SHT30;58692;43.212;27.908;2024-01-16T12:07:22;9.74;57.41
71039;SHT30;58692;43.212;27.908;2024-01-16T12:09:48;9.81;57.95
71039;SHT30;58692;43.212;27.908;2024-01-16T12:12:15;9.73;58.39
71039;SHT30;58692;43.212;27.908;2024-01-16T12:14:50;9.70;58.72
71039;SHT30;58692;43.212;27.908;2024-01-16T12:17:18;9.80;59.40
71039;SHT30;58692;43.212;27.908;2024-01-16T12:19:46;9.95;58.89
71039;SHT30;58692;43.212;27.908;2024-01-16T12:22:15;10.56;57.00
71039;SHT30;58692;43.212;27.908;2024-01-16T12:24:42;11.27;55.59
71039;SHT30;58692;43.212;27.908;2024-01-16T12:27:08;11.55;54.49
71039;SHT30;58692;43.212;27.908;2024-01-16T12:29:34;11.93;53.90
71039;SHT30;58692;43.212;27.908;2024-01-16T12:32:08;12.16;52.87
71039;SHT30;58692;43.212;27.908;2024-01-16T12:34:38;12.25;52.25
71039;SHT30;58692;43.212;27.908;2024-01-16T12:37:08;12.32;52.11
71039;SHT30;58692;43.212;27.908;2024-01-16T12:39:35;12.26;52.96
71039;SHT30;58692;43.212;27.908;2024-01-16T12:42:01;11.78;52.70
71039;SHT30;58692;43.212;27.908;2024-01-16T12:44:28;11.89;52.76
71039;SHT30;58692;43.212;27.908;2024-01-16T12:46:55;12.10;52.18
71039;SHT30;58692;43.212;27.908;2024-01-16T12:49:22;12.32;51.80
71039;SHT30;58692;43.212;27.908;2024-01-16T12:51:48;12.05;52.30
71039;SHT30;58692;43.212;27.908;2024-01-16T12:54:16;11.34;53.42
71039;SHT30;58692;43.212;27.908;2024-01-16T12:56:44;11.67;53.11
71039;SHT30;58692;43.212;27.908;2024-01-16T12:59:13;11.44;53.47
71039;SHT30;58692;43.212;27.908;2024-01-16T13:01:42;11.64;54.25
71039;SHT30;58692;43.212;27.908;2024-01-16T13:04:12;11.51;53.70
71039;SHT30;58692;43.212;27.908;2024-01-16T13:06:38;11.48;53.21
71039;SHT30;58692;43.212;27.908;2024-01-16T13:09:06;11.81;52.50
71039;SHT30;58692;43.212;27.908;2024-01-16T13:11:51;12.12;52.08
71039;SHT30;58692;43.212;27.908;2024-01-16T13:14:18;12.05;51.89
71039;SHT30;58692;43.212;27.908;2024-01-16T13:16:46;12.13;51.86
71039;SHT30;58692;43.212;27.908;2024-01-16T13:19:17;11.89;50.68
71039;SHT30;58692;43.212;27.908;2024-01-16T13:21:43;11.64;50.04
71039;SHT30;58692;43.212;27.908;2024-01-16T13:24:08;11.58;49.92
71039;SHT30;58692;43.212;27.908;2024-01-16T13:26:34;10.97;52.50
71039;SHT30;58692;43.212;27.908;2024-01-16T13:29:00;10.89;53.15
71039;SHT30;58692;43.212;27.908;2024-01-16T13:31:26;10.49;53.83
71039;SHT30;58692;43.212;27.908;2024-01-16T13:33:51;9.94;54.07
71039;SHT30;58692;43.212;27.908;2024-01-16T13:36:17;9.75;54.44
71039;SHT30;58692;43.212;27.908;2024-01-16T13:38:43;9.44;55.17
71039;SHT30;58692;43.212;27.908;2024-01-16T13:41:09;9.16;55.77
71039;SHT30;58692;43.212;27.908;2024-01-16T13:43:36;8.82;56.54
71039;SHT30;58692;43.212;27.908;2024-01-16T13:46:03;8.80;57.06
71039;SHT30;58692;43.212;27.908;2024-01-16T13:48:37;8.66;57.88
71039;SHT30;58692;43.212;27.908;2024-01-16T13:51:03;8.82;57.78
71039;SHT30;58692;43.212;27.908;2024-01-16T13:53:32;8.75;58.14
71039;SHT30;58692;43.212;27.908;2024-01-16T13:56:00;8.65;57.85
71039;SHT30;58692;43.212;27.908;2024-01-16T13:58:26;8.65;58.91
71039;SHT30;58692;43.212;27.908;2024-01-16T14:00:52;8.61;59.03
71039;SHT30;58692;43.212;27.908;2024-01-16T14:03:21;8.51;59.09
71039;SHT30;58692;43.212;27.908;2024-01-16T14:05:46;8.45;59.28
71039;SHT30;58692;43.212;27.908;2024-01-16T14:08:12;8.42;59.62
71039;SHT30;58692;43.212;27.908;2024-01-16T14:10:38;8.33;59.67
71039;SHT30;58692;43.212;27.908;2024-01-16T14:13:15;8.31;59.64
71039;SHT30;58692;43.212;27.908;2024-01-16T14:15:44;8.15;59.80
71039;SHT30;58692;43.212;27.908;2024-01-16T14:18:09;7.97;60.71
71039;SHT30;58692;43.212;27.908;2024-01-16T14:20:35;7.91;60.83
71039;SHT30;58692;43.212;27.908;2024-01-16T14:23:03;7.90;60.74
71039;SHT30;58692;43.212;27.908;2024-01-16T14:25:48;7.89;60.37
71039;SHT30;58692;43.212;27.908;2024-01-16T14:28:14;7.84;59.68
71039;SHT30;58692;43.212;27.908;2024-01-16T14:30:48;7.65;59.68
71039;SHT30;58692;43.212;27.908;2024-01-16T14:33:22;7.55;59.52
71039;SHT30;58692;43.212;27.908;2024-01-16T14:35:51;7.50;59.48
71039;SHT30;58692;43.212;27.908;2024-01-16T14:38:18;7.48;59.52
71039;SHT30;58692;43.212;27.908;2024-01-16T14:40:44;7.39;59.44
71039;SHT30;58692;43.212;27.908;2024-01-16T14:43:17;7.40;59.69
71039;SHT30;58692;43.212;27.908;2024-01-16T14:45:49;7.29;59.82
71039;SHT30;58692;43.212;27.908;2024-01-16T14:48:27;7.38;60.03
71039;SHT30;58692;43.212;27.908;2024-01-16T14:50:52;7.38;60.01
71039;SHT30;58692;43.212;27.908;2024-01-16T14:53:18;7.25;60.25
71039;SHT30;58692;43.212;27.908;2024-01-16T14:55:44;7.07;60.59
71039;SHT30;58692;43.212;27.908;2024-01-16T14:58:10;7.09;60.77
71039;SHT30;58692;43.212;27.908;2024-01-16T15:00:37;7.11;60.63
71039;SHT30;58692;43.212;27.908;2024-01-16T15:03:03;7.05;60.76
71039;SHT30;58692;43.212;27.908;2024-01-16T15:05:28;7.04;60.67
71039;SHT30;58692;43.212;27.908;2024-01-16T15:07:54;6.94;61.46
71039;SHT30;58692;43.212;27.908;2024-01-16T15:10:21;6.88;62.43
71039;SHT30;58692;43.212;27.908;2024-01-16T15:12:47;6.85;62.60
71039;SHT30;58692;43.212;27.908;2024-01-16T15:15:14;7.02;62.36
71039;SHT30;58692;43.212;27.908;2024-01-16T15:17:41;6.85;62.65
71039;SHT30;58692;43.212;27.908;2024-01-16T15:20:08;6.84;62.76
71039;SHT30;58692;43.212;27.908;2024-01-16T15:22:44;6.85;62.62
71039;SHT30;58692;43.212;27.908;2024-01-16T15:25:11;6.73;62.65
71039;SHT30;58692;43.212;27.908;2024-01-16T15:27:39;6.70;62.73
71039;SHT30;58692;43.212;27.908;2024-01-16T15:30:05;6.67;62.73
71039;SHT30;58692;43.212;27.908;2024-01-16T15:32:33;6.58;62.81
71039;SHT30;58692;43.212;27.908;2024-01-16T15:34:59;6.50;63.23
71039;SHT30;58692;43.212;27.908;2024-01-16T15:37:26;6.37;63.24
71039;SHT30;58692;43.212;27.908;2024-01-16T15:39:52;6.41;63.33
71039;SHT30;58692;43.212;27.908;2024-01-16T15:42:18;6.13;64.03
71039;SHT30;58692;43.212;27.908;2024-01-16T15:44:46;6.19;64.05
71039;SHT30;58692;43.212;27.908;2024-01-16T15:47:16;6.10;64.47
71039;SHT30;58692;43.212;27.908;2024-01-16T15:49:50;6.06;64.50
71039;SHT30;58692;43.212;27.908;2024-01-16T15:52:24;5.96;64.93
71039;SHT30;58692;43.212;27.908;2024-01-16T15:54:50;5.91;65.21
71039;SHT30;58692;43.212;27.908;2024-01-16T15:57:16;5.82;65.46
71039;SHT30;58692;43.212;27.908;2024-01-16T15:59:41;5.86;65.76
71039;SHT30;58692;43.212;27.908;2024-01-16T16:02:07;5.95;65.19
71039;SHT30;58692;43.212;27.908;2024-01-16T16:04:35;5.96;65.03
71039;SHT30;58692;43.212;27.908;2024-01-16T16:07:02;5.82;65.39
71039;SHT30;58692;43.212;27.908;2024-01-16T16:09:28;5.86;65.41
71039;SHT30;58692;43.212;27.908;2024-01-16T16:11:54;5.86;65.42
71039;SHT30;58692;43.212;27.908;2024-01-16T16:14:20;5.88;65.78
71039;SHT30;58692;43.212;27.908;2024-01-16T16:16:48;5.91;64.90
71039;SHT30;58692;43.212;27.908;2024-01-16T16:19:15;5.96;64.87